sensor_id;sensor_type;location;lat;lon;timestamp;pressure;altitude;pressure_sealevel;temperature;humidity
52651;BME280;38537;47.226;39.702;2023-02-02T00:01:29;100158.31;;;5.83;59.38
52651;BME280;38537;47.226;39.702;2023-02-02T00:03:57;100162.63;;;6.19;58.91
52651;BME280;38537;47.226;39.702;2023-02-02T00:06:26;100147.59;;;6.31;58.26
52651;BME280;38537;47.226;39.702;2023-02-02T00:08:56;100165.84;;;6.37;57.90
52651;BME280;38537;47.226;39.702;2023-02-02T00:11:24;100149.59;;;6.15;57.56
52651;BME280;38537;47.226;39.702;2023-02-02T00:13:52;100142.81;;;5.67;57.48
52651;BME280;38537;47.226;39.702;2023-02-02T00:18:57;100148.69;;;5.50;57.69
52651;BME280;38537;47.226;39.702;2023-02-02T00:21:25;100132.94;;;5.30;58.49
52651;BME280;38537;47.226;39.702;2023-02-02T00:23:53;100140.72;;;5.18;57.63
52651;BME280;38537;47.226;39.702;2023-02-02T00:26:20;100110.28;;;4.82;57.51
52651;BME280;38537;47.226;39.702;2023-02-02T00:28:47;100119.44;;;4.68;57.52
52651;BME280;38537;47.226;39.702;2023-02-02T00:31:15;100141.25;;;4.49;58.16
52651;BME280;38537;47.226;39.702;2023-02-02T00:33:46;100147.56;;;4.29;58.38
52651;BME280;38537;47.226;39.702;2023-02-02T00:36:14;100153.88;;;4.09;58.97
52651;BME280;38537;47.226;39.702;2023-02-02T00:38:41;100122.25;;;3.80;59.04
52651;BME280;38537;47.226;39.702;2023-02-02T00:41:14;100138.28;;;3.83;59.26
52651;BME280;38537;47.226;39.702;2023-02-02T00:43:49;100101.09;;;3.49;59.75
52651;BME280;38537;47.226;39.702;2023-02-02T00:46:40;100137.84;;;3.54;60.08
52651;BME280;38537;47.226;39.702;2023-02-02T00:49:11;100150.84;;;3.59;59.83
52651;BME280;38537;47.226;39.702;2023-02-02T00:51:40;100131.47;;;3.43;60.98
52651;BME280;38537;47.226;39.702;2023-02-02T00:54:08;100079.38;;;3.10;60.38
52651;BME280;38537;47.226;39.702;2023-02-02T00:56:41;100101.78;;;3.19;60.59
52651;BME280;38537;47.226;39.702;2023-02-02T00:59:10;100126.41;;;3.30;60.48
52651;BME280;38537;47.226;39.702;2023-02-02T01:01:38;100135.72;;;3.19;60.48
52651;BME280;38537;47.226;39.702;2023-02-02T01:04:06;100172.34;;;3.52;60.77
52651;BME280;38537;47.226;39.702;2023-02-02T01:06:34;100148.03;;;3.49;61.57
52651;BME280;38537;47.226;39.702;2023-02-02T01:09:04;100152.78;;;3.58;61.43
52651;BME280;38537;47.226;39.702;2023-02-02T01:11:33;100173.34;;;3.83;61.29
52651;BME280;38537;47.226;39.702;2023-02-02T01:14:03;100126.06;;;3.64;61.04
52651;BME280;38537;47.226;39.702;2023-02-02T01:16:33;100082.50;;;3.29;61.41
52651;BME280;38537;47.226;39.702;2023-02-02T01:19:01;100070.53;;;3.60;62.30
52651;BME280;38537;47.226;39.702;2023-02-02T01:21:28;100144.53;;;4.36;60.87
52651;BME280;38537;47.226;39.702;2023-02-02T01:23:58;100168.34;;;4.57;60.81
52651;BME280;38537;47.226;39.702;2023-02-02T01:26:33;100175.59;;;5.09;60.83
52651;BME280;38537;47.226;39.702;2023-02-02T01:29:00;100177.00;;;5.16;59.59
52651;BME280;38537;47.226;39.702;2023-02-02T01:31:27;100163.97;;;5.07;59.62
52651;BME280;38537;47.226;39.702;2023-02-02T01:33:55;100155.41;;;5.19;60.13
52651;BME280;38537;47.226;39.702;2023-02-02T01:36:23;100170.56;;;5.46;59.70
52651;BME280;38537;47.226;39.702;2023-02-02T01:38:50;100159.97;;;5.79;60.12
52651;BME280;38537;47.226;39.702;2023-02-02T01:41:20;100179.91;;;5.91;58.60
52651;BME280;38537;47.226;39.702;2023-02-02T01:43:51;100179.38;;;5.79;58.68
52651;BME280;38537;47.226;39.702;2023-02-02T01:46:30;100175.47;;;5.95;59.06
52651;BME280;38537;47.226;39.702;2023-02-02T01:49:10;100154.13;;;5.91;59.21
52651;BME280;38537;47.226;39.702;2023-02-02T01:51:47;100168.59;;;5.72;58.43
52651;BME280;38537;47.226;39.702;2023-02-02T01:54:21;100169.19;;;5.49;58.97
52651;BME280;38537;47.226;39.702;2023-02-02T01:56:54;100165.91;;;5.32;60.15
52651;BME280;38537;47.226;39.702;2023-02-02T01:59:25;100172.81;;;5.34;60.15
52651;BME280;38537;47.226;39.702;2023-02-02T02:01:53;100153.47;;;5.19;60.32
52651;BME280;38537;47.226;39.702;2023-02-02T02:04:22;100153.44;;;5.04;59.88
52651;BME280;38537;47.226;39.702;2023-02-02T02:06:50;100161.50;;;5.15;60.29
52651;BME280;38537;47.226;39.702;2023-02-02T02:09:19;100166.19;;;4.95;60.13
52651;BME280;38537;47.226;39.702;2023-02-02T02:11:47;100181.13;;;5.04;60.78
52651;BME280;38537;47.226;39.702;2023-02-02T02:14:15;100184.97;;;4.67;61.22
52651;BME280;38537;47.226;39.702;2023-02-02T02:17:30;100192.69;;;4.60;61.98
52651;BME280;38537;47.226;39.702;2023-02-02T02:29:46;100194.94;;;4.73;62.48
52651;BME280;38537;47.226;39.702;2023-02-02T02:32:25;100198.25;;;4.86;61.60
52651;BME280;38537;47.226;39.702;2023-02-02T02:38:15;100203.53;;;5.28;62.15
52651;BME280;38537;47.226;39.702;2023-02-02T02:40:50;100183.81;;;5.65;61.03
52651;BME280;38537;47.226;39.702;2023-02-02T02:43:26;100194.94;;;5.60;60.00
52651;BME280;38537;47.226;39.702;2023-02-02T02:45:55;100181.09;;;5.49;60.71
52651;BME280;38537;47.226;39.702;2023-02-02T02:48:24;100176.97;;;5.37;60.58
52651;BME280;38537;47.226;39.702;2023-02-02T02:50:51;100205.19;;;5.54;60.68
52651;BME280;38537;47.226;39.702;2023-02-02T02:53:20;100190.22;;;5.45;60.56
52651;BME280;38537;47.226;39.702;2023-02-02T02:59:06;100215.91;;;5.86;60.11
52651;BME280;38537;47.226;39.702;2023-02-02T03:01:44;100211.41;;;6.21;59.49
52651;BME280;38537;47.226;39.702;2023-02-02T03:07:54;100205.41;;;5.73;59.20
52651;BME280;38537;47.226;39.702;2023-02-02T03:10:25;100205.50;;;5.37;59.63
52651;BME280;38537;47.226;39.702;2023-02-02T03:12:56;100193.84;;;5.10;59.90
52651;BME280;38537;47.226;39.702;2023-02-02T03:15:24;100191.09;;;4.90;60.17
52651;BME280;38537;47.226;39.702;2023-02-02T03:17:51;100212.94;;;4.96;60.72
52651;BME280;38537;47.226;39.702;2023-02-02T03:20:20;100235.34;;;4.95;60.68
52651;BME280;38537;47.226;39.702;2023-02-02T03:22:47;100204.66;;;4.96;61.12
52651;BME280;38537;47.226;39.702;2023-02-02T03:25:14;100223.50;;;5.20;60.42
52651;BME280;38537;47.226;39.702;2023-02-02T03:27:42;100243.66;;;5.25;59.75
52651;BME280;38537;47.226;39.702;2023-02-02T03:30:12;100237.56;;;5.43;60.63
52651;BME280;38537;47.226;39.702;2023-02-02T03:32:40;100249.75;;;5.78;59.30
52651;BME280;38537;47.226;39.702;2023-02-02T03:35:08;100243.69;;;5.56;58.45
52651;BME280;38537;47.226;39.702;2023-02-02T03:37:35;100237.88;;;5.57;58.99
52651;BME280;38537;47.226;39.702;2023-02-02T03:40:03;100262.44;;;6.09;58.69
52651;BME280;38537;47.226;39.702;2023-02-02T03:42:30;100255.72;;;6.31;58.25
52651;BME280;38537;47.226;39.702;2023-02-02T03:44:57;100234.22;;;6.02;57.16
52651;BME280;38537;47.226;39.702;2023-02-02T03:47:28;100242.53;;;5.82;57.63
52651;BME280;38537;47.226;39.702;2023-02-02T03:49:56;100253.06;;;5.90;58.15
52651;BME280;38537;47.226;39.702;2023-02-02T03:52:23;100273.31;;;5.40;58.25
52651;BME280;38537;47.226;39.702;2023-02-02T03:54:51;100276.59;;;4.96;58.71
52651;BME280;38537;47.226;39.702;2023-02-02T03:57:18;100290.06;;;4.77;59.62
52651;BME280;38537;47.226;39.702;2023-02-02T03:59:46;100274.53;;;4.61;60.54
52651;BME280;38537;47.226;39.702;2023-02-02T04:02:14;100284.19;;;4.48;60.28
52651;BME280;38537;47.226;39.702;2023-02-02T04:04:41;100280.47;;;4.23;60.26
52651;BME280;38537;47.226;39.702;2023-02-02T04:07:08;100299.13;;;4.00;61.01
52651;BME280;38537;47.226;39.702;2023-02-02T04:09:35;100306.22;;;3.86;61.44
52651;BME280;38537;47.226;39.702;2023-02-02T04:12:03;100296.75;;;3.77;61.67
52651;BME280;38537;47.226;39.702;2023-02-02T04:14:31;100306.06;;;3.66;62.10
52651;BME280;38537;47.226;39.702;2023-02-02T04:16:59;100293.97;;;3.40;62.34
52651;BME280;38537;47.226;39.702;2023-02-02T04:19:26;100306.94;;;3.39;62.32
52651;BME280;38537;47.226;39.702;2023-02-02T04:21:53;100291.19;;;3.35;62.95
52651;BME280;38537;47.226;39.702;2023-02-02T04:24:20;100297.91;;;3.17;62.85
52651;BME280;38537;47.226;39.702;2023-02-02T04:26:48;100282.94;;;2.81;63.05
52651;BME280;38537;47.226;39.702;2023-02-02T04:29:15;100272.22;;;2.58;63.70
52651;BME280;38537;47.226;39.702;2023-02-02T04:31:42;100282.16;;;2.64;64.08
52651;BME280;38537;47.226;39.702;2023-02-02T04:34:09;100292.06;;;2.60;64.44
52651;BME280;38537;47.226;39.702;2023-02-02T04:36:37;100297.25;;;2.78;64.77
52651;BME280;38537;47.226;39.702;2023-02-02T04:39:10;100312.09;;;3.04;64.52
52651;BME280;38537;47.226;39.702;2023-02-02T04:41:37;100287.31;;;3.36;63.95
52651;BME280;38537;47.226;39.702;2023-02-02T04:44:12;100318.38;;;3.85;63.97
52651;BME280;38537;47.226;39.702;2023-02-02T04:46:40;100317.97;;;4.13;63.51
52651;BME280;38537;47.226;39.702;2023-02-02T04:49:09;100321.03;;;3.75;62.26
52651;BME280;38537;47.226;39.702;2023-02-02T04:51:38;100300.53;;;3.34;62.15
52651;BME280;38537;47.226;39.702;2023-02-02T04:54:06;100294.16;;;3.60;62.63
52651;BME280;38537;47.226;39.702;2023-02-02T04:56:36;100314.25;;;3.88;62.35
52651;BME280;38537;47.226;39.702;2023-02-02T04:59:03;100282.63;;;4.16;62.25
52651;BME280;38537;47.226;39.702;2023-02-02T05:01:31;100331.41;;;4.42;60.91
52651;BME280;38537;47.226;39.702;2023-02-02T05:03:58;100314.84;;;4.47;61.13
52651;BME280;38537;47.226;39.702;2023-02-02T05:06:27;100329.84;;;4.61;60.89
52651;BME280;38537;47.226;39.702;2023-02-02T05:08:57;100341.41;;;4.48;60.05
52651;BME280;38537;47.226;39.702;2023-02-02T05:11:27;100332.03;;;4.59;60.14
52651;BME280;38537;47.226;39.702;2023-02-02T05:13:55;100320.19;;;4.64;59.91
52651;BME280;38537;47.226;39.702;2023-02-02T05:16:23;100311.66;;;4.80;59.78
52651;BME280;38537;47.226;39.702;2023-02-02T05:18:56;100340.59;;;5.45;59.58
52651;BME280;38537;47.226;39.702;2023-02-02T05:21:25;100334.47;;;5.23;58.32
52651;BME280;38537;47.226;39.702;2023-02-02T05:23:53;100348.34;;;5.43;58.62
52651;BME280;38537;47.226;39.702;2023-02-02T05:26:22;100327.53;;;5.15;58.35
52651;BME280;38537;47.226;39.702;2023-02-02T05:28:51;100335.00;;;5.20;58.30
52651;BME280;38537;47.226;39.702;2023-02-02T05:31:18;100340.00;;;5.13;58.17
52651;BME280;38537;47.226;39.702;2023-02-02T05:33:46;100338.91;;;5.19;58.58
52651;BME280;38537;47.226;39.702;2023-02-02T05:36:14;100336.16;;;5.49;58.16
52651;BME280;38537;47.226;39.702;2023-02-02T05:38:42;100340.84;;;5.34;57.40
52651;BME280;38537;47.226;39.702;2023-02-02T05:41:09;100322.59;;;5.38;58.20
52651;BME280;38537;47.226;39.702;2023-02-02T05:43:36;100329.50;;;5.45;56.97
52651;BME280;38537;47.226;39.702;2023-02-02T05:46:04;100325.59;;;5.21;57.21
52651;BME280;38537;47.226;39.702;2023-02-02T05:48:31;100344.97;;;5.11;57.11
52651;BME280;38537;47.226;39.702;2023-02-02T05:51:25;100354.16;;;5.37;58.41
52651;BME280;38537;47.226;39.702;2023-02-02T05:53:57;100359.94;;;5.15;57.90
52651;BME280;38537;47.226;39.702;2023-02-02T05:56:26;100335.78;;;4.90;58.02
52651;BME280;38537;47.226;39.702;2023-02-02T05:58:53;100358.72;;;4.91;57.87
52651;BME280;38537;47.226;39.702;2023-02-02T06:01:21;100349.34;;;4.92;58.50
52651;BME280;38537;47.226;39.702;2023-02-02T06:03:48;100328.59;;;4.94;58.09
52651;BME280;38537;47.226;39.702;2023-02-02T06:06:15;100364.72;;;5.60;58.08
52651;BME280;38537;47.226;39.702;2023-02-02T06:08:43;100371.09;;;5.81;57.16
52651;BME280;38537;47.226;39.702;2023-02-02T06:11:11;100369.19;;;5.97;57.28
52651;BME280;38537;47.226;39.702;2023-02-02T06:13:39;100353.34;;;6.17;56.83
52651;BME280;38537;47.226;39.702;2023-02-02T06:16:06;100373.00;;;6.31;56.10
52651;BME280;38537;47.226;39.702;2023-02-02T06:18:34;100384.38;;;6.35;56.29
52651;BME280;38537;47.226;39.702;2023-02-02T06:21:05;100366.66;;;5.80;55.25
52651;BME280;38537;47.226;39.702;2023-02-02T06:23:33;100380.22;;;5.76;56.51
52651;BME280;38537;47.226;39.702;2023-02-02T06:26:00;100384.91;;;5.56;56.55
52651;BME280;38537;47.226;39.702;2023-02-02T06:28:30;100383.53;;;5.68;57.03
52651;BME280;38537;47.226;39.702;2023-02-02T06:31:03;100394.41;;;6.05;55.93
52651;BME280;38537;47.226;39.702;2023-02-02T06:33:31;100404.06;;;6.28;56.03
52651;BME280;38537;47.226;39.702;2023-02-02T06:36:03;100408.22;;;6.31;54.54
52651;BME280;38537;47.226;39.702;2023-02-02T06:38:31;100378.84;;;5.79;54.64
52651;BME280;38537;47.226;39.702;2023-02-02T06:41:01;100378.53;;;5.45;55.03
52651;BME280;38537;47.226;39.702;2023-02-02T06:43:29;100400.34;;;5.16;55.75
52651;BME280;38537;47.226;39.702;2023-02-02T06:45:56;100395.53;;;4.91;56.70
52651;BME280;38537;47.226;39.702;2023-02-02T06:48:25;100400.38;;;4.64;56.92
52651;BME280;38537;47.226;39.702;2023-02-02T06:50:52;100366.06;;;4.60;57.78
52651;BME280;38537;47.226;39.702;2023-02-02T06:53:20;100379.47;;;4.88;57.27
52651;BME280;38537;47.226;39.702;2023-02-02T06:55:56;100387.44;;;4.74;56.49
52651;BME280;38537;47.226;39.702;2023-02-02T06:58:23;100407.88;;;4.68;57.34
52651;BME280;38537;47.226;39.702;2023-02-02T07:00:51;100402.88;;;4.65;57.51
52651;BME280;38537;47.226;39.702;2023-02-02T07:03:19;100394.34;;;4.77;56.98
52651;BME280;38537;47.226;39.702;2023-02-02T07:05:49;100383.44;;;4.50;57.26
52651;BME280;38537;47.226;39.702;2023-02-02T07:08:16;100395.47;;;4.29;57.48
52651;BME280;38537;47.226;39.702;2023-02-02T07:10:44;100383.50;;;3.81;57.49
52651;BME280;38537;47.226;39.702;2023-02-02T07:13:31;100387.56;;;3.73;58.79
52651;BME280;38537;47.226;39.702;2023-02-02T07:15:58;100399.19;;;3.49;59.01
52651;BME280;38537;47.226;39.702;2023-02-02T07:18:26;100407.41;;;3.38;59.36
52651;BME280;38537;47.226;39.702;2023-02-02T07:20:53;100399.63;;;3.35;59.66
52651;BME280;38537;47.226;39.702;2023-02-02T07:23:20;100386.19;;;3.17;59.90
52651;BME280;38537;47.226;39.702;2023-02-02T07:25:47;100394.09;;;3.08;60.30
52651;BME280;38537;47.226;39.702;2023-02-02T07:28:15;100406.16;;;3.02;59.67
52651;BME280;38537;47.226;39.702;2023-02-02T07:30:42;100397.22;;;3.17;60.92
52651;BME280;38537;47.226;39.702;2023-02-02T07:33:09;100401.50;;;3.30;59.97
52651;BME280;38537;47.226;39.702;2023-02-02T07:35:36;100417.44;;;3.76;60.21
52651;BME280;38537;47.226;39.702;2023-02-02T07:38:04;100401.56;;;3.94;59.50
52651;BME280;38537;47.226;39.702;2023-02-02T07:40:31;100414.50;;;3.88;59.29
52651;BME280;38537;47.226;39.702;2023-02-02T07:42:58;100407.13;;;3.67;59.01
52651;BME280;38537;47.226;39.702;2023-02-02T07:45:28;100404.44;;;3.45;59.50
52651;BME280;38537;47.226;39.702;2023-02-02T07:47:56;100405.47;;;3.66;59.82
52651;BME280;38537;47.226;39.702;2023-02-02T07:50:26;100411.97;;;3.55;59.26
52651;BME280;38537;47.226;39.702;2023-02-02T07:52:54;100413.16;;;3.37;58.90
52651;BME280;38537;47.226;39.702;2023-02-02T07:55:21;100414.25;;;3.36;59.65
52651;BME280;38537;47.226;39.702;2023-02-02T07:57:50;100395.47;;;3.33;60.46
52651;BME280;38537;47.226;39.702;2023-02-02T08:00:19;100429.75;;;3.64;59.63
52651;BME280;38537;47.226;39.702;2023-02-02T08:02:49;100430.19;;;3.56;59.49
52651;BME280;38537;47.226;39.702;2023-02-02T08:05:17;100422.69;;;3.78;59.90
52651;BME280;38537;47.226;39.702;2023-02-02T08:07:44;100428.53;;;3.82;58.97
52651;BME280;38537;47.226;39.702;2023-02-02T08:10:12;100420.56;;;3.85;59.26
52651;BME280;38537;47.226;39.702;2023-02-02T08:12:39;100424.56;;;3.72;59.13
52651;BME280;38537;47.226;39.702;2023-02-02T08:15:06;100428.06;;;3.90;59.29
52651;BME280;38537;47.226;39.702;2023-02-02T08:17:33;100439.44;;;4.30;59.25
52651;BME280;38537;47.226;39.702;2023-02-02T08:20:01;100437.50;;;4.78;59.49
52651;BME280;38537;47.226;39.702;2023-02-02T08:22:29;100430.97;;;4.94;57.99
52651;BME280;38537;47.226;39.702;2023-02-02T08:24:57;100423.94;;;4.71;57.36
52651;BME280;38537;47.226;39.702;2023-02-02T08:27:24;100420.06;;;4.77;57.98
52651;BME280;38537;47.226;39.702;2023-02-02T08:29:51;100439.00;;;5.01;59.14
52651;BME280;38537;47.226;39.702;2023-02-02T08:32:18;100427.22;;;4.68;57.58
52651;BME280;38537;47.226;39.702;2023-02-02T08:34:48;100403.91;;;4.49;58.30
52651;BME280;38537;47.226;39.702;2023-02-02T08:37:18;100411.63;;;4.47;58.00
52651;BME280;38537;47.226;39.702;2023-02-02T08:40:06;100426.31;;;4.53;58.10
52651;BME280;38537;47.226;39.702;2023-02-02T08:42:33;100417.47;;;4.56;58.59
52651;BME280;38537;47.226;39.702;2023-02-02T08:45:02;100420.69;;;4.90;58.33
52651;BME280;38537;47.226;39.702;2023-02-02T08:47:52;100427.47;;;5.24;58.05
52651;BME280;38537;47.226;39.702;2023-02-02T08:50:37;100423.31;;;5.22;56.73
52651;BME280;38537;47.226;39.702;2023-02-02T08:53:06;100436.94;;;5.33;56.23
52651;BME280;38537;47.226;39.702;2023-02-02T08:55:33;100426.88;;;5.12;55.88
52651;BME280;38537;47.226;39.702;2023-02-02T08:58:00;100412.03;;;4.71;56.04
52651;BME280;38537;47.226;39.702;2023-02-02T09:00:27;100429.91;;;4.58;56.91
52651;BME280;38537;47.226;39.702;2023-02-02T09:02:54;100427.69;;;4.50;57.09
52651;BME280;38537;47.226;39.702;2023-02-02T09:05:22;100424.78;;;4.77;57.96
52651;BME280;38537;47.226;39.702;2023-02-02T09:07:50;100430.44;;;4.97;58.15
52651;BME280;38537;47.226;39.702;2023-02-02T09:10:17;100409.44;;;5.11;57.95
52651;BME280;38537;47.226;39.702;2023-02-02T09:12:45;100422.97;;;4.98;56.85
52651;BME280;38537;47.226;39.702;2023-02-02T09:15:12;100422.94;;;4.93;57.40
52651;BME280;38537;47.226;39.702;2023-02-02T09:17:40;100393.50;;;4.71;57.08
52651;BME280;38537;47.226;39.702;2023-02-02T09:20:07;100405.69;;;4.70;56.98
52651;BME280;38537;47.226;39.702;2023-02-02T09:22:35;100398.38;;;4.49;56.87
52651;BME280;38537;47.226;39.702;2023-02-02T09:25:02;100418.13;;;4.73;57.86
52651;BME280;38537;47.226;39.702;2023-02-02T09:27:30;100396.97;;;4.46;57.40
52651;BME280;38537;47.226;39.702;2023-02-02T09:29:57;100398.84;;;4.41;57.33
52651;BME280;38537;47.226;39.702;2023-02-02T09:32:24;100416.63;;;4.50;57.46
52651;BME280;38537;47.226;39.702;2023-02-02T09:34:51;100385.69;;;4.16;57.90
52651;BME280;38537;47.226;39.702;2023-02-02T09:37:18;100394.66;;;3.96;58.37
52651;BME280;38537;47.226;39.702;2023-02-02T09:39:46;100414.13;;;4.11;58.69
52651;BME280;38537;47.226;39.702;2023-02-02T09:42:53;100414.47;;;4.20;58.76
52651;BME280;38537;47.226;39.702;2023-02-02T09:45:47;100411.41;;;4.17;58.57
52651;BME280;38537;47.226;39.702;2023-02-02T09:48:45;100411.34;;;4.06;58.02
52651;BME280;38537;47.226;39.702;2023-02-02T09:51:12;100367.44;;;3.78;58.70
52651;BME280;38537;47.226;39.702;2023-02-02T09:54:20;100394.56;;;3.81;58.57
52651;BME280;38537;47.226;39.702;2023-02-02T09:56:52;100373.69;;;3.36;58.78
52651;BME280;38537;47.226;39.702;2023-02-02T09:59:26;100377.56;;;3.35;59.44
52651;BME280;38537;47.226;39.702;2023-02-02T10:01:57;100382.63;;;3.49;59.79
52651;BME280;38537;47.226;39.702;2023-02-02T10:04:34;100373.28;;;3.50;60.17
52651;BME280;38537;47.226;39.702;2023-02-02T10:07:09;100350.72;;;3.31;59.89
52651;BME280;38537;47.226;39.702;2023-02-02T10:09:43;100379.69;;;3.55;60.19
52651;BME280;38537;47.226;39.702;2023-02-02T10:17:45;100378.56;;;3.83;59.91
52651;BME280;38537;47.226;39.702;2023-02-02T10:22:50;100361.47;;;3.86;60.30
52651;BME280;38537;47.226;39.702;2023-02-02T10:25:21;100350.72;;;3.90;59.75
52651;BME280;38537;47.226;39.702;2023-02-02T10:28:17;100368.78;;;4.50;61.19
52651;BME280;38537;47.226;39.702;2023-02-02T10:30:54;100348.97;;;4.68;58.46
52651;BME280;38537;47.226;39.702;2023-02-02T10:36:20;100354.16;;;4.54;58.27
52651;BME280;38537;47.226;39.702;2023-02-02T10:39:07;100342.44;;;4.37;57.98
52651;BME280;38537;47.226;39.702;2023-02-02T10:41:58;100356.84;;;4.44;58.02
52651;BME280;38537;47.226;39.702;2023-02-02T10:47:28;100331.84;;;4.19;58.49
52651;BME280;38537;47.226;39.702;2023-02-02T10:50:18;100368.00;;;4.54;58.92
52651;BME280;38537;47.226;39.702;2023-02-02T10:52:51;100360.59;;;4.70;59.41
52651;BME280;38537;47.226;39.702;2023-02-02T10:55:27;100371.50;;;4.97;58.34
52651;BME280;38537;47.226;39.702;2023-02-02T10:58:49;100380.09;;;5.10;57.71
52651;BME280;38537;47.226;39.702;2023-02-02T11:00:56;100386.75;;;5.09;57.53
52651;BME280;38537;47.226;39.702;2023-02-02T11:03:27;100383.72;;;5.16;58.19
52651;BME280;38537;47.226;39.702;2023-02-02T11:05:57;100380.44;;;5.29;58.53
52651;BME280;38537;47.226;39.702;2023-02-02T11:08:48;100386.50;;;5.21;57.05
52651;BME280;38537;47.226;39.702;2023-02-02T11:11:25;100388.13;;;5.07;56.83
52651;BME280;38537;47.226;39.702;2023-02-02T11:16:39;100383.06;;;4.89;57.74
52651;BME280;38537;47.226;39.702;2023-02-02T11:21:50;100383.75;;;5.26;58.26
52651;BME280;38537;47.226;39.702;2023-02-02T11:26:58;100400.91;;;5.28;57.04
52651;BME280;38537;47.226;39.702;2023-02-02T11:37:32;100375.91;;;4.93;56.90
52651;BME280;38537;47.226;39.702;2023-02-02T11:42:58;100407.44;;;4.92;56.69
52651;BME280;38537;47.226;39.702;2023-02-02T11:45:41;100412.66;;;4.88;56.93
52651;BME280;38537;47.226;39.702;2023-02-02T11:48:19;100411.59;;;4.99;56.62
52651;BME280;38537;47.226;39.702;2023-02-02T11:50:50;100416.38;;;5.14;56.63
52651;BME280;38537;47.226;39.702;2023-02-02T11:53:30;100426.72;;;5.39;56.91
52651;BME280;38537;47.226;39.702;2023-02-02T11:56:06;100425.03;;;5.43;56.57
52651;BME280;38537;47.226;39.702;2023-02-02T11:58:52;100436.47;;;5.77;56.87
52651;BME280;38537;47.226;39.702;2023-02-02T12:01:25;100435.09;;;5.74;55.90
52651;BME280;38537;47.226;39.702;2023-02-02T12:03:56;100440.66;;;5.90;56.82
52651;BME280;38537;47.226;39.702;2023-02-02T12:06:38;100451.50;;;6.27;56.81
52651;BME280;38537;47.226;39.702;2023-02-02T12:09:16;100451.78;;;6.40;54.80
52651;BME280;38537;47.226;39.702;2023-02-02T12:17:42;100439.31;;;6.23;54.34
52651;BME280;38537;47.226;39.702;2023-02-02T12:23:21;100457.88;;;6.37;55.12
52651;BME280;38537;47.226;39.702;2023-02-02T12:34:10;100455.38;;;5.95;54.28
52651;BME280;38537;47.226;39.702;2023-02-02T12:40:20;100419.28;;;5.60;55.02
52651;BME280;38537;47.226;39.702;2023-02-02T12:43:24;100461.13;;;5.73;54.92
52651;BME280;38537;47.226;39.702;2023-02-02T12:54:18;100462.44;;;5.45;56.46
52651;BME280;38537;47.226;39.702;2023-02-02T12:57:30;100461.28;;;5.41;56.14
52651;BME280;38537;47.226;39.702;2023-02-02T13:03:10;100471.66;;;5.04;56.17
52651;BME280;38537;47.226;39.702;2023-02-02T13:08:16;100454.66;;;4.80;56.88
52651;BME280;38537;47.226;39.702;2023-02-02T13:10:51;100461.00;;;4.70;57.33
52651;BME280;38537;47.226;39.702;2023-02-02T13:13:30;100455.91;;;5.04;58.15
52651;BME280;38537;47.226;39.702;2023-02-02T13:16:04;100462.31;;;5.15;56.71
52651;BME280;38537;47.226;39.702;2023-02-02T13:18:41;100443.50;;;5.12;56.60
52651;BME280;38537;47.226;39.702;2023-02-02T13:21:20;100455.78;;;5.46;56.72
52651;BME280;38537;47.226;39.702;2023-02-02T13:23:51;100475.00;;;5.83;56.72
52651;BME280;38537;47.226;39.702;2023-02-02T13:26:25;100449.84;;;6.00;56.05
52651;BME280;38537;47.226;39.702;2023-02-02T13:29:02;100454.53;;;6.10;55.57
52651;BME280;38537;47.226;39.702;2023-02-02T13:40:28;100462.56;;;6.57;55.70
52651;BME280;38537;47.226;39.702;2023-02-02T13:43:33;100483.56;;;6.99;54.62
52651;BME280;38537;47.226;39.702;2023-02-02T13:49:07;100486.94;;;6.91;53.98
52651;BME280;38537;47.226;39.702;2023-02-02T14:01:05;100446.91;;;7.02;54.58
52651;BME280;38537;47.226;39.702;2023-02-02T14:03:41;100477.47;;;7.61;53.83
52651;BME280;38537;47.226;39.702;2023-02-02T14:06:15;100432.63;;;7.34;53.29
52651;BME280;38537;47.226;39.702;2023-02-02T14:08:53;100476.09;;;7.64;53.30
52651;BME280;38537;47.226;39.702;2023-02-02T14:11:33;100473.88;;;7.61;53.57
52651;BME280;38537;47.226;39.702;2023-02-02T14:14:15;100485.38;;;7.88;52.79
52651;BME280;38537;47.226;39.702;2023-02-02T14:19:59;100462.41;;;8.16;51.66
52651;BME280;38537;47.226;39.702;2023-02-02T14:22:47;100450.91;;;7.89;51.51
52651;BME280;38537;47.226;39.702;2023-02-02T14:28:12;100484.88;;;7.81;52.32
52651;BME280;38537;47.226;39.702;2023-02-02T14:34:30;100494.50;;;7.99;52.55
52651;BME280;38537;47.226;39.702;2023-02-02T14:45:28;100494.78;;;8.41;51.83
52651;BME280;38537;47.226;39.702;2023-02-02T14:50:57;100510.09;;;8.39;51.08
52651;BME280;38537;47.226;39.702;2023-02-02T14:53:37;100514.97;;;8.57;51.49
52651;BME280;38537;47.226;39.702;2023-02-02T14:56:10;100472.84;;;8.30;51.29
52651;BME280;38537;47.226;39.702;2023-02-02T14:58:45;100499.28;;;8.32;50.77
52651;BME280;38537;47.226;39.702;2023-02-02T15:06:53;100472.63;;;8.60;50.54
52651;BME280;38537;47.226;39.702;2023-02-02T15:20:12;100528.28;;;7.72;51.83
52651;BME280;38537;47.226;39.702;2023-02-02T15:22:49;100527.31;;;7.42;52.27
52651;BME280;38537;47.226;39.702;2023-02-02T15:31:11;100533.63;;;7.58;53.17
52651;BME280;38537;47.226;39.702;2023-02-02T15:33:43;100541.66;;;7.70;53.36
52651;BME280;38537;47.226;39.702;2023-02-02T15:36:26;100533.66;;;8.02;52.68
52651;BME280;38537;47.226;39.702;2023-02-02T15:38:57;100513.44;;;7.91;52.28
52651;BME280;38537;47.226;39.702;2023-02-02T15:41:32;100504.03;;;7.82;52.33
52651;BME280;38537;47.226;39.702;2023-02-02T15:44:00;100526.09;;;7.69;52.42
52651;BME280;38537;47.226;39.702;2023-02-02T15:46:30;100513.31;;;7.63;52.76
52651;BME280;38537;47.226;39.702;2023-02-02T15:49:23;100538.84;;;7.75;52.58